Time;durP1;ratioP1;P1;durP2;ratioP2;P2;SDS_P1;SDS_P2;PMS_P1;PMS_P2;Temp;Humidity;BMP_temperature;BMP_pressure;BME280_temperature;BME280_humidity;BME280_pressure;Samples;Min_cycle;Max_cycle;Signal;HPM_P1;HPM_P2
2021/05/28 00:00:49;;;;;;;8.33;3.00;;;;;;;-144.99;99.43;52427.72;5067811;28;20196;-63
2021/05/28 00:03:20;;;;;;;4.37;3.53;;;;;;;-144.99;99.64;52403.25;5066528;28;20269;-60
2021/05/28 00:05:46;;;;;;;5.80;2.87;;;;;;;-144.99;99.70;52435.88;5069262;28;20219;-60
2021/05/28 00:08:13;;;;;;;6.37;3.93;;;;;;;-144.99;99.74;52403.25;5068426;28;20324;-59
2021/05/28 00:10:41;;;;;;;7.73;2.73;;;;;;;-144.99;99.65;52433.81;5058532;28;20209;-60
2021/05/28 00:13:09;;;;;;;7.40;3.97;;;;;;;-144.99;99.69;52452.16;5068200;28;20197;-60
2021/05/28 00:15:35;;;;;;;5.60;3.23;;;;;;;-144.99;99.93;52423.63;5066288;28;20739;-60
2021/05/28 00:18:02;;;;;;;11.30;3.50;;;;;;;-144.99;99.95;52431.78;5068814;28;20232;-60
2021/05/28 00:20:28;;;;;;;6.93;4.23;;;;;;;-144.99;99.99;52378.78;5066998;28;20216;-60
2021/05/28 00:22:54;;;;;;;7.20;4.00;;;;;;;-144.99;99.99;52403.25;5064339;28;20247;-60
2021/05/28 00:25:20;;;;;;;10.57;3.43;;;;;;;-144.99;100.00;52419.56;5069692;28;20216;-60
2021/05/28 00:27:46;;;;;;;10.80;4.50;;;;;;;-144.99;100.00;52399.19;5068536;28;20267;-59
2021/05/28 00:30:14;;;;;;;7.53;3.27;;;;;;;-144.99;100.00;52415.47;5069438;28;20223;-64
2021/05/28 00:32:40;;;;;;;8.67;5.07;;;;;;;-144.99;100.00;52435.88;5066447;28;20453;-64
2021/05/28 00:35:08;;;;;;;8.90;3.67;;;;;;;-144.99;100.00;52419.56;5066760;28;20211;-64
2021/05/28 00:37:34;;;;;;;7.57;4.97;;;;;;;-144.99;100.00;52397.13;5066489;28;20322;-66
2021/05/28 00:40:00;;;;;;;8.40;4.23;;;;;;;-144.99;100.00;52423.63;5069239;28;20209;-65
2021/05/28 00:42:32;;;;;;;11.30;5.27;;;;;;;-144.99;100.00;52415.47;5059350;28;20225;-64
2021/05/28 00:44:59;;;;;;;7.33;4.60;;;;;;;-144.99;100.00;52415.47;5064414;28;20266;-64
2021/05/28 00:47:26;;;;;;;8.17;4.10;;;;;;;-144.99;100.00;52425.66;5069286;28;20232;-64
2021/05/28 00:49:52;;;;;;;8.57;4.60;;;;;;;-144.99;100.00;52415.47;5068866;28;20679;-65
2021/05/28 00:52:19;;;;;;;9.37;5.20;;;;;;;-144.99;100.00;52415.47;5066519;28;20201;-63
2021/05/28 00:54:45;;;;;;;9.40;4.83;;;;;;;-144.99;100.00;52419.56;5065769;28;20230;-60
2021/05/28 00:57:14;;;;;;;8.83;4.67;;;;;;;-144.99;100.00;52439.94;5068814;28;20802;-61
2021/05/28 00:59:40;;;;;;;11.03;3.40;;;;;;;-144.99;100.00;52399.19;5069107;28;20217;-61
2021/05/28 01:02:06;;;;;;;8.40;4.00;;;;;;;-144.99;100.00;52407.31;5067328;28;20480;-60
2021/05/28 01:04:34;;;;;;;6.53;3.87;;;;;;;-144.99;100.00;52480.72;5068295;28;20605;-60
2021/05/28 01:07:01;;;;;;;6.57;3.43;;;;;;;-144.99;100.00;52395.09;5068514;28;20240;-63
2021/05/28 01:09:28;;;;;;;9.50;4.60;;;;;;;-144.99;100.00;52435.88;5065682;28;20205;-63
2021/05/28 01:11:54;;;;;;;6.63;3.13;;;;;;;-144.99;100.00;52425.66;5060236;28;20204;-62
2021/05/28 01:14:24;;;;;;;7.00;3.87;;;;;;;-144.99;100.00;52397.13;5068504;28;20607;-62
2021/05/28 01:16:50;;;;;;;5.13;3.90;;;;;;;-144.99;100.00;52456.25;5067914;28;20225;-63
2021/05/28 01:19:16;;;;;;;10.93;4.10;;;;;;;-144.99;100.00;52444.03;5066979;28;20207;-62
2021/05/28 01:21:44;;;;;;;11.07;4.37;;;;;;;-144.99;100.00;52417.53;5066347;28;20768;-62
2021/05/28 01:24:11;;;;;;;5.47;3.20;;;;;;;-144.99;100.00;52407.31;5063840;28;20565;-64
2021/05/28 01:26:37;;;;;;;11.07;4.03;;;;;;;-144.99;100.00;52425.66;5068261;28;20213;-64
2021/05/28 01:29:07;;;;;;;7.27;3.27;;;;;;;-144.99;100.00;52411.41;5066912;28;20212;-65
2021/05/28 01:31:33;;;;;;;8.13;3.73;;;;;;;-144.99;100.00;52423.63;5063604;28;20516;-62
2021/05/28 01:34:00;;;;;;;4.73;3.70;;;;;;;-144.99;100.00;52431.78;5068504;28;20209;-63
2021/05/28 01:36:26;;;;;;;19.03;5.00;;;;;;;-144.99;100.00;52439.94;5064711;28;20201;-62
2021/05/28 01:38:54;;;;;;;6.40;3.70;;;;;;;-144.99;100.00;52448.09;5067140;28;20759;-61
2021/05/28 01:41:24;;;;;;;5.80;3.77;;;;;;;-144.99;100.00;52419.56;5067311;28;20212;-61
2021/05/28 01:43:56;;;;;;;8.67;3.83;;;;;;;-144.99;100.00;52415.47;5060676;28;20301;-62
2021/05/28 01:46:23;;;;;;;5.70;4.17;;;;;;;-144.99;100.00;52448.09;5070669;28;20215;-58
2021/05/28 01:48:50;;;;;;;6.67;3.77;;;;;;;-144.99;100.00;52439.94;5070095;28;20302;-58
2021/05/28 01:51:18;;;;;;;11.80;3.17;;;;;;;-144.99;100.00;52435.88;5070426;28;20208;-59
2021/05/28 01:53:45;;;;;;;8.13;3.80;;;;;;;-144.99;100.00;52419.56;5071682;28;20205;-59
2021/05/28 01:56:11;;;;;;;7.60;4.00;;;;;;;-144.99;100.00;52415.47;5071559;28;20220;-60
2021/05/28 01:58:38;;;;;;;6.80;3.90;;;;;;;-144.99;100.00;52407.31;5070860;28;20566;-58
2021/05/28 02:01:04;;;;;;;10.90;4.37;;;;;;;-144.99;100.00;52444.03;5069238;28;20213;-59
2021/05/28 02:03:30;;;;;;;8.60;4.63;;;;;;;-144.99;100.00;52423.63;5070531;28;20220;-59
2021/05/28 02:05:57;;;;;;;6.27;3.50;;;;;;;-144.99;100.00;52403.25;5072129;28;20209;-58
2021/05/28 02:08:23;;;;;;;5.97;3.70;;;;;;;-144.99;100.00;52429.75;5070838;28;20261;-59
2021/05/28 02:10:49;;;;;;;8.83;4.60;;;;;;;-144.99;100.00;52446.06;5066548;28;20239;-58
2021/05/28 02:15:56;;;;;;;7.60;4.20;;;;;;;-144.99;100.00;52476.63;5049996;28;20217;-59
2021/05/28 02:18:25;;;;;;;9.23;4.33;;;;;;;-144.99;100.00;52444.03;5051552;28;20217;-58
2021/05/28 02:20:51;;;;;;;14.27;4.97;;;;;;;-144.99;100.00;52444.03;5047381;28;20438;-58
2021/05/28 02:23:18;;;;;;;6.70;4.67;;;;;;;-144.99;100.00;52423.63;5049695;28;20271;-58
2021/05/28 02:25:47;;;;;;;5.37;4.30;;;;;;;-144.99;100.00;52448.09;5051776;28;20212;-57
2021/05/28 02:28:13;;;;;;;5.80;4.20;;;;;;;-144.99;100.00;52456.25;5050839;28;20325;-58
2021/05/28 02:30:45;;;;;;;6.70;4.57;;;;;;;-144.99;100.00;52452.16;5049024;28;20210;-58
2021/05/28 02:33:11;;;;;;;5.43;2.87;;;;;;;-144.99;100.00;52444.03;5042422;28;20205;-57
2021/05/28 02:35:43;;;;;;;7.43;6.07;;;;;;;-144.99;100.00;52468.47;5047383;28;20212;-58
2021/05/28 02:38:15;;;;;;;7.10;3.90;;;;;;;-144.99;100.00;52415.47;5036898;28;20233;-57
2021/05/28 02:40:46;;;;;;;9.10;4.67;;;;;;;-144.99;100.00;52448.09;5050479;28;20202;-57
2021/05/28 02:43:15;;;;;;;10.83;4.37;;;;;;;-144.99;100.00;52439.94;5042375;28;20313;-59
2021/05/28 02:45:41;;;;;;;11.17;5.07;;;;;;;-144.99;100.00;52399.19;5045738;28;20733;-57
2021/05/28 02:48:11;;;;;;;5.43;3.53;;;;;;;-144.99;100.00;52488.84;5051041;28;20244;-59
2021/05/28 02:50:40;;;;;;;5.90;4.10;;;;;;;-144.99;100.00;52419.56;5048342;28;20305;-60
2021/05/28 02:53:06;;;;;;;6.00;3.50;;;;;;;-144.99;100.00;52386.94;5050597;28;20655;-60
2021/05/28 02:55:33;;;;;;;8.40;3.97;;;;;;;-144.99;100.00;52439.94;5050803;28;20210;-59
2021/05/28 02:57:59;;;;;;;10.60;4.53;;;;;;;-144.99;100.00;52435.88;5051103;28;20226;-61
2021/05/28 03:00:26;;;;;;;5.40;3.80;;;;;;;-144.99;100.00;52419.56;5049716;28;20561;-61
2021/05/28 03:02:54;;;;;;;7.07;3.97;;;;;;;-144.99;100.00;52427.72;5050872;28;20229;-62
2021/05/28 03:05:21;;;;;;;7.07;4.23;;;;;;;-144.99;100.00;52444.03;5050707;28;20216;-59
2021/05/28 03:07:48;;;;;;;5.37;3.87;;;;;;;-144.99;100.00;52401.22;5050628;28;21105;-60
2021/05/28 03:10:17;;;;;;;8.07;3.83;;;;;;;-144.99;100.00;52415.47;5048653;28;20597;-59
2021/05/28 03:12:43;;;;;;;6.47;4.03;;;;;;;-144.99;100.00;52435.88;5049960;28;20241;-58
2021/05/28 03:15:11;;;;;;;6.50;3.77;;;;;;;-144.99;100.00;52444.03;5050354;28;20703;-60
2021/05/28 03:17:45;;;;;;;8.57;5.30;;;;;;;-144.99;100.00;52419.56;5050209;28;20608;-59
2021/05/28 03:20:19;;;;;;;6.70;3.60;;;;;;;-144.99;100.00;52448.09;5048355;28;20608;-59
2021/05/28 03:22:46;;;;;;;5.57;3.83;;;;;;;-144.99;100.00;52407.31;5047134;28;20322;-59
2021/05/28 03:25:13;;;;;;;6.77;4.27;;;;;;;-144.99;99.97;52415.47;5041681;28;20647;-59
2021/05/28 03:27:48;;;;;;;4.63;4.00;;;;;;;-144.99;99.93;52403.25;5049840;28;20272;-59
2021/05/28 03:30:19;;;;;;;10.10;4.33;;;;;;;-144.99;99.81;52417.53;5048858;28;20259;-58
2021/05/28 03:32:50;;;;;;;8.30;4.67;;;;;;;-144.99;99.83;52419.56;5047858;28;20679;-60
2021/05/28 03:35:17;;;;;;;9.50;4.70;;;;;;;-144.99;99.81;52386.94;5046141;28;20296;-60
2021/05/28 03:37:43;;;;;;;7.53;3.80;;;;;;;-144.99;99.79;52403.25;5049535;28;20228;-60
2021/05/28 03:40:12;;;;;;;13.40;7.03;;;;;;;-144.99;99.86;52403.25;5050564;28;20209;-58
2021/05/28 03:42:38;;;;;;;6.83;3.80;;;;;;;-144.99;99.82;52472.56;5047420;28;20391;-58
2021/05/28 03:45:11;;;;;;;6.23;3.63;;;;;;;-144.99;99.88;52431.78;5050445;28;20274;-57
2021/05/28 03:47:38;;;;;;;5.67;3.90;;;;;;;-144.99;99.97;52374.72;5049408;28;20616;-59
2021/05/28 03:50:08;;;;;;;7.67;4.67;;;;;;;-144.99;99.85;52444.03;5048759;28;20284;-57
2021/05/28 03:52:34;;;;;;;10.87;5.67;;;;;;;-144.99;99.73;52378.78;5047255;28;20727;-57
2021/05/28 03:55:03;;;;;;;8.43;4.20;;;;;;;-144.99;99.67;52413.44;5049841;28;20211;-58
2021/05/28 03:57:30;;;;;;;7.43;5.67;;;;;;;-144.99;99.71;52407.31;5049242;28;20235;-58
2021/05/28 03:59:59;;;;;;;6.00;3.27;;;;;;;-144.99;99.73;52374.72;5049614;28;20241;-57
2021/05/28 04:02:25;;;;;;;5.87;3.47;;;;;;;-144.99;99.61;52407.31;5048568;28;20312;-57
2021/05/28 04:04:51;;;;;;;3.87;3.47;;;;;;;-144.99;99.61;52423.63;5044357;28;20209;-62
2021/05/28 04:07:20;;;;;;;5.50;4.03;;;;;;;-144.99;99.70;52378.78;5049286;28;20388;-63
2021/05/28 04:09:49;;;;;;;7.03;3.63;;;;;;;-144.99;99.60;52423.63;5045695;28;20757;-62
2021/05/28 04:12:18;;;;;;;5.53;3.60;;;;;;;-144.99;99.53;52366.56;5049410;28;20582;-61
2021/05/28 04:14:45;;;;;;;5.93;3.07;;;;;;;-144.99;99.64;52431.78;5042765;28;20221;-62
2021/05/28 04:17:11;;;;;;;5.33;3.10;;;;;;;-144.99;99.72;52409.38;5049823;28;20229;-61
2021/05/28 04:19:37;;;;;;;3.83;2.73;;;;;;;-144.99;99.51;52423.63;5048637;28;20678;-61
2021/05/28 04:22:03;;;;;;;10.13;4.40;;;;;;;-144.99;99.75;52382.88;5036764;28;20566;-64
2021/05/28 04:24:32;;;;;;;6.83;3.67;;;;;;;-144.99;99.92;52378.78;5049270;28;20722;-61
2021/05/28 04:26:58;;;;;;;7.40;4.47;;;;;;;-144.99;99.97;52401.22;5049760;28;20232;-61
2021/05/28 04:29:33;;;;;;;6.63;3.07;;;;;;;-144.99;99.70;52395.09;5048874;28;20216;-61
2021/05/28 04:32:00;;;;;;;6.63;3.87;;;;;;;-144.99;99.72;52370.63;5032509;28;20212;-60
2021/05/28 04:34:29;;;;;;;6.43;3.53;;;;;;;-144.99;100.00;52419.56;5045676;28;20225;-59
2021/05/28 04:36:58;;;;;;;5.10;3.30;;;;;;;-144.99;99.83;52391.03;5046251;28;20642;-59
2021/05/28 04:39:27;;;;;;;6.23;4.20;;;;;;;-144.99;100.00;52374.72;5049771;28;20695;-58
2021/05/28 04:41:53;;;;;;;4.97;4.27;;;;;;;-144.99;99.99;52378.78;5048468;28;20232;-59
2021/05/28 04:44:19;;;;;;;6.17;3.40;;;;;;;-144.99;99.77;52395.09;5049164;28;20216;-58
2021/05/28 04:46:48;;;;;;;5.47;3.43;;;;;;;-144.99;100.00;52370.63;5050557;28;20243;-59
2021/05/28 04:49:18;;;;;;;6.53;4.23;;;;;;;-144.99;100.00;52444.03;5050119;28;20217;-59
2021/05/28 04:51:44;;;;;;;6.07;3.73;;;;;;;-144.99;100.00;52386.94;5047192;28;20209;-59
2021/05/28 04:54:10;;;;;;;7.37;4.87;;;;;;;-144.99;100.00;52415.47;5049760;28;20205;-60
2021/05/28 04:56:36;;;;;;;5.83;3.47;;;;;;;-144.99;100.00;52388.97;5050439;28;20213;-60
2021/05/28 04:59:03;;;;;;;8.77;4.80;;;;;;;-144.99;100.00;52399.19;5048956;28;20213;-60
2021/05/28 05:01:29;;;;;;;8.53;5.13;;;;;;;-144.99;100.00;52391.03;5048410;28;20750;-58
2021/05/28 05:03:57;;;;;;;7.20;4.53;;;;;;;-144.99;100.00;52370.63;5048792;28;20227;-60
2021/05/28 05:06:27;;;;;;;6.13;4.77;;;;;;;-144.99;100.00;52378.78;5049628;28;20209;-62
2021/05/28 05:08:54;;;;;;;9.70;7.43;;;;;;;-144.99;100.00;52403.25;5048246;28;20229;-64
2021/05/28 05:11:22;;;;;;;8.40;6.33;;;;;;;-144.99;100.00;52362.50;5049076;28;20209;-66
2021/05/28 05:13:48;;;;;;;8.00;5.37;;;;;;;-144.99;100.00;52374.72;5047875;28;20194;-65
2021/05/28 05:16:15;;;;;;;9.67;5.30;;;;;;;-144.99;100.00;52340.06;5048920;28;20675;-65
2021/05/28 05:18:41;;;;;;;7.83;5.13;;;;;;;-144.99;100.00;52370.63;5048698;28;20231;-64
2021/05/28 05:21:07;;;;;;;11.63;6.17;;;;;;;-144.99;100.00;52374.72;5052535;28;20213;-64
2021/05/28 05:23:34;;;;;;;8.83;7.40;;;;;;;-144.99;99.53;52362.50;5050939;28;20237;-59
2021/05/28 05:26:00;;;;;;;14.90;7.00;;;;;;;-144.99;99.44;52382.88;5052806;28;20801;-58
2021/05/28 05:28:26;;;;;;;6.20;4.97;;;;;;;-144.99;99.25;52374.72;5052472;28;20237;-59
2021/05/28 05:30:52;;;;;;;7.00;5.73;;;;;;;-144.99;98.26;52374.72;5053427;28;20224;-58
2021/05/28 05:33:18;;;;;;;8.00;5.50;;;;;;;-144.99;98.32;52354.34;5051462;28;20300;-58
2021/05/28 05:35:44;;;;;;;7.37;5.83;;;;;;;-144.99;97.65;52399.19;5052536;28;20202;-60
2021/05/28 05:38:11;;;;;;;12.03;6.73;;;;;;;-144.99;97.72;52382.88;5052252;28;20240;-57
2021/05/28 05:40:41;;;;;;;12.47;6.37;;;;;;;-144.99;97.37;52407.31;5052498;28;20213;-58
2021/05/28 05:43:11;;;;;;;10.43;5.77;;;;;;;-144.99;97.09;52407.31;5042344;28;20232;-59
2021/05/28 05:45:41;;;;;;;8.30;4.67;;;;;;;-144.99;96.71;52372.69;5052459;28;20782;-61
2021/05/28 05:48:08;;;;;;;9.27;4.23;;;;;;;-144.99;96.80;52386.94;5039703;28;20485;-60
2021/05/28 05:50:37;;;;;;;11.40;4.57;;;;;;;-144.99;96.80;52362.50;5052699;28;20551;-60
2021/05/28 05:53:06;;;;;;;8.87;5.03;;;;;;;-144.99;96.87;52391.03;5051223;28;20709;-59
2021/05/28 05:55:35;;;;;;;7.17;5.00;;;;;;;-144.99;96.75;52366.56;5051896;28;20578;-60
2021/05/28 05:58:08;;;;;;;9.23;5.50;;;;;;;-144.99;96.73;52362.50;5052165;28;20240;-61
2021/05/28 06:00:34;;;;;;;9.07;5.30;;;;;;;-144.99;96.57;52382.88;5051333;28;20671;-60
2021/05/28 06:03:00;;;;;;;10.40;6.10;;;;;;;-144.99;96.22;52378.78;5052316;28;20502;-59
2021/05/28 06:05:26;;;;;;;9.40;6.60;;;;;;;-144.99;96.20;52350.25;5052535;28;20660;-61
2021/05/28 06:07:55;;;;;;;10.60;7.47;;;;;;;-144.99;94.88;52364.53;5051808;28;20648;-61
2021/05/28 06:10:27;;;;;;;8.70;5.80;;;;;;;-144.99;94.88;52413.44;5050429;28;20590;-60
2021/05/28 06:12:53;;;;;;;12.30;9.20;;;;;;;-144.99;95.04;52360.44;5050659;28;20213;-60
2021/05/28 06:15:20;;;;;;;14.97;7.07;;;;;;;-144.99;94.93;52413.44;5054093;28;20682;-61
2021/05/28 06:17:46;;;;;;;17.27;8.87;;;;;;;-144.99;94.64;52350.25;5052546;28;20243;-61
2021/05/28 06:20:13;;;;;;;11.50;8.23;;;;;;;-144.99;93.98;52427.72;5052137;28;20217;-61
2021/05/28 06:22:39;;;;;;;13.93;8.27;;;;;;;-144.99;93.74;52366.56;5050329;28;20240;-58
2021/05/28 06:25:07;;;;;;;16.77;8.93;;;;;;;-144.99;93.75;52395.09;5044092;28;20205;-58
2021/05/28 06:27:33;;;;;;;11.60;7.93;;;;;;;-144.99;93.81;52370.63;5051007;28;20229;-58
2021/05/28 06:30:02;;;;;;;11.10;9.23;;;;;;;-144.99;93.66;52399.19;5051416;28;20737;-59
2021/05/28 06:32:29;;;;;;;17.90;8.50;;;;;;;-144.99;93.43;52419.56;5049510;28;20229;-60
2021/05/28 06:34:55;;;;;;;14.27;8.27;;;;;;;-144.99;93.34;52395.09;5051668;28;20208;-58
2021/05/28 06:37:21;;;;;;;16.07;8.60;;;;;;;-144.99;93.26;52452.16;5051056;28;20290;-60
2021/05/28 06:39:50;;;;;;;11.37;7.93;;;;;;;-144.99;92.94;52415.47;5051787;28;20693;-60
2021/05/28 06:42:16;;;;;;;14.67;9.67;;;;;;;-144.99;93.05;52350.25;5047974;28;20390;-63
2021/05/28 06:44:42;;;;;;;14.57;9.63;;;;;;;-144.99;92.98;52415.47;5048445;28;20560;-59
2021/05/28 06:47:09;;;;;;;10.30;7.23;;;;;;;-144.99;92.97;52395.09;5044568;28;20796;-59
2021/05/28 06:49:36;;;;;;;9.93;8.07;;;;;;;-144.99;92.70;52366.56;5051321;28;20224;-58
2021/05/28 06:52:02;;;;;;;16.93;10.93;;;;;;;-144.99;92.73;52407.31;5051011;28;20221;-58
2021/05/28 06:54:33;;;;;;;18.60;9.80;;;;;;;-144.99;92.63;52423.63;5049231;28;20206;-58
2021/05/28 06:57:02;;;;;;;14.87;9.50;;;;;;;-144.99;92.80;52342.09;5044236;28;20311;-58
2021/05/28 06:59:28;;;;;;;15.93;9.73;;;;;;;-144.99;92.42;52362.50;5050463;28;20213;-58
2021/05/28 07:02:00;;;;;;;12.37;8.43;;;;;;;-144.99;92.03;52391.03;5051159;28;20312;-60
2021/05/28 07:04:26;;;;;;;10.67;7.37;;;;;;;-144.99;92.12;52370.63;5049370;28;20236;-61
2021/05/28 07:06:58;;;;;;;11.67;7.80;;;;;;;-144.99;91.93;52376.75;5050500;28;20227;-60
2021/05/28 07:09:30;;;;;;;11.77;7.40;;;;;;;-144.99;91.66;52368.59;5049701;28;20304;-59
2021/05/28 07:11:56;;;;;;;15.63;8.20;;;;;;;-144.99;91.33;52350.25;5050228;28;20225;-59
2021/05/28 07:14:25;;;;;;;13.37;7.87;;;;;;;-144.99;91.32;52407.31;5049103;28;20677;-59
2021/05/28 07:16:54;;;;;;;8.73;7.10;;;;;;;-144.99;91.20;52352.28;5048635;28;20313;-59
2021/05/28 07:19:23;;;;;;;10.23;8.10;;;;;;;-144.99;90.94;52391.03;5050992;28;20213;-57
2021/05/28 07:21:49;;;;;;;9.13;7.07;;;;;;;-144.99;90.60;52374.72;5050288;28;20210;-58
2021/05/28 07:24:18;;;;;;;12.20;7.03;;;;;;;-144.99;90.49;52364.53;5048639;28;20659;-59
2021/05/28 07:26:45;;;;;;;11.87;7.07;;;;;;;-144.99;90.28;52372.69;5047829;28;20202;-60
2021/05/28 07:29:11;;;;;;;15.50;7.20;;;;;;;-144.99;89.45;52350.25;5043927;28;20296;-60
2021/05/28 07:31:40;;;;;;;10.77;6.67;;;;;;;-144.99;89.75;52372.69;5047242;28;20245;-60
2021/05/28 07:34:06;;;;;;;9.30;7.40;;;;;;;-144.99;89.65;52342.09;5043449;28;20281;-60
2021/05/28 07:36:32;;;;;;;11.20;6.10;;;;;;;-144.99;88.83;52370.63;5048351;28;20209;-62
2021/05/28 07:39:01;;;;;;;17.33;6.97;;;;;;;-144.99;88.34;52354.34;5043651;28;20338;-61
2021/05/28 07:41:31;;;;;;;13.03;7.07;;;;;;;-144.99;87.87;52366.56;5049829;28;20215;-61
2021/05/28 07:43:59;;;;;;;11.57;6.87;;;;;;;-144.99;86.93;52340.06;5036488;28;20276;-61
2021/05/28 07:46:28;;;;;;;11.10;7.50;;;;;;;-144.99;85.87;52391.03;5047002;28;20667;-56
2021/05/28 07:48:55;;;;;;;10.20;7.47;;;;;;;-144.99;83.91;52289.13;5050325;28;20315;-60
2021/05/28 07:51:24;;;;;;;13.37;7.03;;;;;;;-144.99;83.39;52346.19;5050207;28;20219;-60
2021/05/28 07:53:53;;;;;;;10.87;7.37;;;;;;;-144.99;82.13;52309.50;5049670;28;20206;-60
2021/05/28 07:56:19;;;;;;;16.30;7.97;;;;;;;-144.99;81.59;52342.09;5048314;28;20202;-59
2021/05/28 07:58:51;;;;;;;11.83;7.30;;;;;;;-144.99;81.95;52325.81;5039360;28;20232;-62
2021/05/28 08:01:17;;;;;;;11.53;7.27;;;;;;;-144.99;80.66;52378.78;5050230;28;20304;-60
2021/05/28 08:03:44;;;;;;;13.23;7.03;;;;;;;-144.99;81.07;52323.75;5049572;28;20233;-61
2021/05/28 08:06:12;;;;;;;15.10;8.60;;;;;;;-144.99;80.26;52348.22;5047372;28;20279;-60
2021/05/28 08:08:38;;;;;;;12.90;7.80;;;;;;;-144.99;79.87;52278.91;5048107;28;20233;-59
2021/05/28 08:11:08;;;;;;;15.10;6.83;;;;;;;-144.99;80.31;52331.91;5050501;28;20197;-59
2021/05/28 08:13:34;;;;;;;10.77;6.93;;;;;;;-144.99;79.12;52321.72;5048817;28;20620;-60
2021/05/28 08:16:01;;;;;;;10.10;6.23;;;;;;;-144.99;77.76;52333.94;5048560;28;20234;-59
2021/05/28 08:18:30;;;;;;;10.67;7.17;;;;;;;-144.99;76.28;52301.34;5049337;28;20257;-60
2021/05/28 08:21:02;;;;;;;10.63;6.40;;;;;;;-144.99;75.40;52354.34;5049945;28;20226;-60
2021/05/28 08:23:31;;;;;;;9.53;5.90;;;;;;;-144.99;75.24;52348.22;5049180;28;20237;-59
2021/05/28 08:25:58;;;;;;;11.00;7.17;;;;;;;-144.99;74.91;52333.94;5048323;28;20205;-58
2021/05/28 08:28:24;;;;;;;14.87;7.00;;;;;;;-144.99;76.07;52362.50;5048641;28;20236;-63
2021/05/28 08:30:51;;;;;;;13.37;7.70;;;;;;;-144.99;76.85;52374.72;5050672;28;20239;-64
2021/05/28 08:33:20;;;;;;;11.87;6.57;;;;;;;-144.99;76.62;52348.22;5040029;28;20197;-62
2021/05/28 08:35:46;;;;;;;13.60;7.83;;;;;;;-144.99;76.68;52325.81;5048646;28;20225;-63
2021/05/28 08:38:16;;;;;;;9.00;6.93;;;;;;;-144.99;76.44;52340.06;5048012;28;20306;-66
2021/05/28 08:40:42;;;;;;;14.27;7.57;;;;;;;-144.99;76.54;52395.09;5044622;28;20680;-66
2021/05/28 08:43:11;;;;;;;17.20;9.03;;;;;;;-144.99;76.86;52342.09;5047739;28;20230;-66
2021/05/28 08:45:43;;;;;;;10.37;7.50;;;;;;;-144.99;77.17;52354.34;5041286;28;20672;-65
2021/05/28 08:48:14;;;;;;;14.73;9.13;;;;;;;-144.99;77.20;52374.72;5045732;28;20650;-65
2021/05/28 08:50:42;;;;;;;10.87;7.80;;;;;;;-144.99;77.55;52378.78;5050206;28;20207;-65
2021/05/28 08:53:15;;;;;;;13.07;7.73;;;;;;;-144.99;77.63;52366.56;5049640;28;20649;-65
2021/05/28 08:55:48;;;;;;;12.03;6.93;;;;;;;-144.99;77.71;52380.84;5052300;28;20209;-65
2021/05/28 08:58:21;;;;;;;20.83;9.43;;;;;;;-144.99;77.86;52317.66;5052605;28;20262;-65
2021/05/28 09:00:50;;;;;;;11.87;7.03;;;;;;;-144.99;77.55;52366.56;5054080;28;20667;-65
2021/05/28 09:03:18;;;;;;;13.37;7.93;;;;;;;-144.99;77.42;52407.31;5061443;28;20316;-64
2021/05/28 09:05:45;;;;;;;13.67;7.57;;;;;;;-144.99;77.35;52350.25;5056918;28;20205;-67
2021/05/28 09:08:26;;;;;;;10.67;8.27;;;;;;;-144.99;77.78;52358.41;5043707;28;20375;-66
2021/05/28 09:10:54;;;;;;;6.97;5.53;;;;;;;-144.99;77.93;52384.91;5045393;28;20217;-66
2021/05/28 09:13:26;;;;;;;12.07;7.57;;;;;;;-144.99;78.02;52386.94;5052489;28;20615;-66
2021/05/28 09:16:09;;;;;;;12.77;7.13;;;;;;;-144.99;78.11;52329.88;5052440;28;20403;-66
2021/05/28 09:18:45;;;;;;;10.97;6.57;;;;;;;-144.99;78.30;52378.78;5049294;28;20237;-66
2021/05/28 09:21:14;;;;;;;9.80;6.80;;;;;;;-144.99;78.33;52354.34;5047090;28;20205;-66
2021/05/28 09:23:41;;;;;;;14.73;7.80;;;;;;;-144.99;78.47;52319.69;5044548;28;20260;-66
2021/05/28 09:26:10;;;;;;;14.60;6.57;;;;;;;-144.99;78.42;52297.25;5052174;28;20251;-66
2021/05/28 09:28:40;;;;;;;12.50;6.60;;;;;;;-144.99;75.97;52342.09;5049381;28;20567;-67
2021/05/28 09:31:13;;;;;;;12.73;7.30;;;;;;;-144.99;74.22;52301.34;5052870;28;20658;-67
2021/05/28 09:33:44;;;;;;;12.97;7.13;;;;;;;-144.99;73.81;52313.56;5043039;28;20206;-66
2021/05/28 09:36:35;;;;;;;9.53;5.83;;;;;;;-144.99;74.73;52338.03;5048689;28;20241;-67
2021/05/28 09:39:05;;;;;;;17.13;6.70;;;;;;;-144.99;75.38;52309.50;5050747;28;20203;-67
2021/05/28 09:41:53;;;;;;;13.03;6.00;;;;;;;-144.99;75.78;52319.69;5051244;28;20282;-67
2021/05/28 09:44:22;;;;;;;10.47;7.00;;;;;;;-144.99;75.74;52370.63;5047382;28;20724;-67
2021/05/28 09:47:04;;;;;;;14.73;5.97;;;;;;;-144.99;75.51;52350.25;5044458;28;20224;-66
2021/05/28 09:49:32;;;;;;;7.67;6.50;;;;;;;-144.99;74.65;52321.72;5048894;28;20219;-67
2021/05/28 09:52:05;;;;;;;12.27;5.87;;;;;;;-144.99;73.84;52354.34;5049598;28;20203;-67
2021/05/28 09:54:31;;;;;;;12.33;4.37;;;;;;;-144.99;73.70;52374.72;5049025;28;20671;-66
2021/05/28 09:56:57;;;;;;;8.43;6.63;;;;;;;-144.99;73.64;52336.00;5053187;28;20237;-67
2021/05/28 09:59:44;;;;;;;9.83;6.03;;;;;;;-144.99;73.43;52366.56;5048298;28;20222;-66
2021/05/28 10:02:24;;;;;;;11.03;6.50;;;;;;;-144.99;74.16;52348.22;5051977;28;20207;-66
2021/05/28 10:04:58;;;;;;;10.20;5.13;;;;;;;-144.99;74.60;52354.34;5042743;28;20212;-66
2021/05/28 10:07:29;;;;;;;10.60;5.50;;;;;;;-144.99;75.14;52352.28;5048979;28;20229;-66
2021/05/28 10:09:59;;;;;;;13.70;8.17;;;;;;;-144.99;75.46;52338.03;5046340;28;20259;-66
2021/05/28 10:12:28;;;;;;;12.33;6.67;;;;;;;-144.99;74.46;52333.94;5052126;28;20273;-66
2021/05/28 10:14:57;;;;;;;17.93;7.83;;;;;;;-144.99;74.55;52309.50;5052445;28;20301;-67
2021/05/28 10:17:24;;;;;;;12.67;6.37;;;;;;;-144.99;74.35;52293.19;5048892;28;20366;-67
2021/05/28 10:19:53;;;;;;;14.50;6.37;;;;;;;-144.99;72.98;52354.34;5050585;28;20203;-66
2021/05/28 10:22:22;;;;;;;11.30;6.30;;;;;;;-144.99;72.93;52325.81;5051881;28;20832;-66
2021/05/28 10:24:50;;;;;;;13.63;6.63;;;;;;;-144.99;71.73;52317.66;5050615;28;20212;-66
2021/05/28 10:27:21;;;;;;;11.20;5.70;;;;;;;-144.99;72.28;52329.88;5051685;28;20224;-67
2021/05/28 10:29:50;;;;;;;10.37;4.73;;;;;;;-144.99;71.84;52325.81;5051999;28;20210;-68
2021/05/28 10:32:16;;;;;;;9.83;5.43;;;;;;;-144.99;72.19;52325.81;5048495;28;20201;-66
2021/05/28 10:35:06;;;;;;;13.60;6.60;;;;;;;-144.99;72.53;52333.94;5050187;28;20234;-67
2021/05/28 10:37:34;;;;;;;11.73;7.30;;;;;;;-144.99;72.43;52317.66;5039885;28;20320;-67
2021/05/28 10:40:04;;;;;;;12.00;5.87;;;;;;;-144.99;72.71;52362.50;5046578;28;20220;-68
2021/05/28 10:42:55;;;;;;;14.60;6.00;;;;;;;-144.99;71.10;52276.88;5051289;28;20231;-68
2021/05/28 10:45:54;;;;;;;17.17;5.67;;;;;;;-144.99;70.73;52305.41;5041729;28;20204;-67
2021/05/28 10:49:11;;;;;;;9.40;5.93;;;;;;;-144.99;70.88;52321.72;5051225;28;20238;-67
2021/05/28 10:52:17;;;;;;;15.27;7.40;;;;;;;-144.99;71.39;52264.66;5051807;28;20248;-67
2021/05/28 10:54:54;;;;;;;19.07;8.47;;;;;;;-144.99;70.25;52309.50;5040562;28;20209;-67
2021/05/28 10:57:48;;;;;;;13.03;7.13;;;;;;;-144.99;70.58;52350.25;5037279;28;20232;-68
2021/05/28 11:00:30;;;;;;;16.10;7.93;;;;;;;-144.99;69.61;52280.97;5050507;28;20215;-67
2021/05/28 11:03:14;;;;;;;13.50;6.80;;;;;;;-144.99;69.34;52309.50;5049027;28;20221;-67
2021/05/28 11:05:56;;;;;;;12.90;6.37;;;;;;;-144.99;69.04;52317.66;5045116;28;20213;-67
2021/05/28 11:08:43;;;;;;;21.37;6.23;;;;;;;-144.99;68.80;52321.72;5054175;28;20236;-66
2021/05/28 11:11:46;;;;;;;13.43;6.47;;;;;;;-144.99;66.90;52287.06;5041310;28;20350;-66
2021/05/28 11:14:13;;;;;;;12.00;6.73;;;;;;;-144.99;66.29;52305.41;5035477;28;20745;-66
2021/05/28 11:17:13;;;;;;;13.27;5.63;;;;;;;-144.99;66.74;52272.81;5049647;28;20663;-67
2021/05/28 11:20:00;;;;;;;9.50;5.77;;;;;;;-144.99;66.44;52268.72;5047692;28;20692;-66
2021/05/28 11:22:30;;;;;;;13.67;5.87;;;;;;;-144.99;66.75;52293.19;5040108;28;20668;-66
2021/05/28 11:25:04;;;;;;;11.83;5.80;;;;;;;-144.99;65.48;52342.09;5047052;28;20660;-64